Terminal Aerodrome Forecast
Issued by NWS Omaha/Valley, NE

Home | Current Version | Previous Version | Text Only | Print | Product List | Glossary On
Versions: 1 2 3 4 5 6 7 8 9 10 11 12 13 14 15 16 17 18 19 20 21 22 23 24 25 26 27 28 29 30 31 32 33
000
FTUS43 KOAX 310520
TAFOFK
TAF
KOFK 310520Z 3106/0106 14010KT P6SM SKC
     FM310800 15011KT P6SM SCT150 WS020/21050KT
     FM311500 19011KT P6SM SCT050 BKN150 PROB30 3120/3123 6SM -TSRA
      OVC050CB
     FM010100 33010KT P6SM BKN050=

USA.gov is the U.S. government's official web portal to all federal, state and local government web resources and services.